Albury, New South Wales

10:28 PM EST on July 25, 2014 (GMT +1000)
Albury (YMAY) Elev 541 ft | 36.07 °S, 146.96 °E | Change Station

Current weather conditions updated 28 minutes ago

Mostly Cloudy
Mostly Cloudy
43 °F
Feels Like 43 °F
N
0
Wind Variable Wind from North

Tomorrow is forecast to be Cooler than today. Chance of showers.

Today
High -- | Low -- °F
--% Chance of Precip.
Yesterday
High -- | Low -- °F
Precip. -- in
7:14 AM 5:22 PM
Waning Crescent, 2% visible
Pressure 30.18 in
Visibility 6.2 miles
Clouds Mostly Cloudy 8600 ft
Dew Point 43 °F
Humidity 100%
Rainfall 0.00 in
Snow Depth Not available.
UV 0 out of 12
Pollen Not available.
Air Quality Not available.
Flu Activity Not available.
METAR YMAY 251200Z AUTO 00000KT 9999 // BKN086 06/06 Q1022

More Conditions Fewer Conditions

Pressure 30.18 in
Visibility 6.2 miles
Clouds Mostly Cloudy 8600 ft
Dew Point 43 °F
Humidity 100%
Rainfall 0.00 in
Snow Depth Not available.
UV 0 out of 12
Pollen Not available.
Air Quality Not available.
Flu Activity Not available.
METAR YMAY 251200Z AUTO 00000KT 9999 // BKN086 06/06 Q1022

More Conditions Fewer Conditions

10-Day Weather Forecast

Almanac

Astronomy

Jul. 25, 2014 Rise Set
Actual Time 7:14 AM EST 5:22 PM EST
Civil Twilight 6:47 AM EST 5:50 PM EST
Nautical Twilight 6:16 AM EST 6:21 PM EST
Astronomical Twilight 5:45 AM EST 6:52 PM EST
Moon 5:33 AM EST 4:02 PM EST
Length of Visible Light 11h 03m
Length of Day
10h 08m
Tomorrow will be 1m 27s longer.
Waning Crescent, 2% of the Moon is Illuminated
Today
Waning Crescent
Jul 26
New
Aug 3
First Quarter
Aug 10
Full
Aug 17
Last Quarter

Yesterday's Extremes

Country Highs Country Lows

Community

WunderPhotos

Upload Photos

1,737,302 photos uploaded!

Nearby

Snow Depth

Not available.

Earthquake Activity

City Distance Mag. Time & Date
No recent earthquake activity has been reported nearby.
Minimum magnitude displayed is 2.5.

Coastal Water Temperatures

Place Temperature
No Stations Reporting

Nearby Weather Stations

Station Location Temp. Windchill Dew Point Humidity Wind Precip. Elev Updated Type
Albury 47.1 °F 47 °F 45 °F 91% NW  at  0.0 mph 0.00 in / hr 650 ft 10:15 PM EST Normal
Albury/Wodonga, Lavington 51.3 °F - 46 °F 81% North  at  3.6 mph - / hr 1050 ft 10:25 PM EST Normal
Wodonga Weather, Wodonga 43.7 °F 44 °F 42 °F 92% South  at  0.4 mph 0.00 in / hr 541 ft 10:28 PM EST Rapid Fire
Federation Park, West Wodonga 41.0 °F 41 °F 39 °F 92% NNE  at  0.0 mph 0.00 in / hr 646 ft 10:28 PM EST Rapid Fire
Wodonga, Wodonga 40.7 °F 41 °F 39 °F 94% SW  at  0.0 mph 0.00 in / hr 636 ft 10:20 PM EST Normal
Greater Hume Shire / Riverina, Brocklesby 43.9 °F 44 °F 40 °F 87% North  at  0.0 mph 0.00 in / hr 581 ft 10:28 PM EST Rapid Fire

Show More Stations Show Fewer Stations